sensor_id;sensor_type;location;lat;lon;timestamp;temperature;humidity
70867;HTU21D;58487;53.474;49.470;2023-02-20T00:00:27;-15.11;118.99
70867;HTU21D;58487;53.474;49.470;2023-02-20T00:02:54;-15.15;118.99
70867;HTU21D;58487;53.474;49.470;2023-02-20T00:05:20;-15.07;118.99
70867;HTU21D;58487;53.474;49.470;2023-02-20T00:07:46;-15.18;118.99
70867;HTU21D;58487;53.474;49.470;2023-02-20T00:10:13;-15.37;118.99
70867;HTU21D;58487;53.474;49.470;2023-02-20T00:12:39;-15.36;118.99
70867;HTU21D;58487;53.474;49.470;2023-02-20T00:15:06;-15.52;118.99
70867;HTU21D;58487;53.474;49.470;2023-02-20T00:17:32;-15.83;118.99
70867;HTU21D;58487;53.474;49.470;2023-02-20T00:19:58;-15.76;118.99
70867;HTU21D;58487;53.474;49.470;2023-02-20T00:22:25;-15.68;118.99
70867;HTU21D;58487;53.474;49.470;2023-02-20T00:24:51;-15.48;118.99
70867;HTU21D;58487;53.474;49.470;2023-02-20T00:27:17;-15.34;118.99
70867;HTU21D;58487;53.474;49.470;2023-02-20T00:29:44;-15.02;118.99
70867;HTU21D;58487;53.474;49.470;2023-02-20T00:32:11;-14.99;118.99
70867;HTU21D;58487;53.474;49.470;2023-02-20T00:34:37;-15.08;118.99
70867;HTU21D;58487;53.474;49.470;2023-02-20T00:37:03;-15.24;118.99
70867;HTU21D;58487;53.474;49.470;2023-02-20T00:39:31;-15.20;118.99
70867;HTU21D;58487;53.474;49.470;2023-02-20T00:41:57;-15.32;118.99
70867;HTU21D;58487;53.474;49.470;2023-02-20T00:44:24;-15.53;118.99
70867;HTU21D;58487;53.474;49.470;2023-02-20T00:46:50;-15.77;118.99
70867;HTU21D;58487;53.474;49.470;2023-02-20T00:49:16;-15.68;118.99
70867;HTU21D;58487;53.474;49.470;2023-02-20T00:51:42;-15.81;118.99
70867;HTU21D;58487;53.474;49.470;2023-02-20T00:54:08;-15.97;118.99
70867;HTU21D;58487;53.474;49.470;2023-02-20T00:56:34;-16.03;118.99
70867;HTU21D;58487;53.474;49.470;2023-02-20T00:59:00;-15.97;118.99
70867;HTU21D;58487;53.474;49.470;2023-02-20T01:01:26;-15.76;118.99
70867;HTU21D;58487;53.474;49.470;2023-02-20T01:03:52;-15.49;118.99
70867;HTU21D;58487;53.474;49.470;2023-02-20T01:06:18;-15.33;118.99
70867;HTU21D;58487;53.474;49.470;2023-02-20T01:08:44;-15.21;118.99
70867;HTU21D;58487;53.474;49.470;2023-02-20T01:11:10;-15.03;118.99
70867;HTU21D;58487;53.474;49.470;2023-02-20T01:13:36;-14.86;118.99
70867;HTU21D;58487;53.474;49.470;2023-02-20T01:16:04;-14.78;118.99
70867;HTU21D;58487;53.474;49.470;2023-02-20T01:18:30;-14.72;118.99
70867;HTU21D;58487;53.474;49.470;2023-02-20T01:20:56;-14.63;118.99
70867;HTU21D;58487;53.474;49.470;2023-02-20T01:23:22;-14.52;118.99
70867;HTU21D;58487;53.474;49.470;2023-02-20T01:25:48;-14.34;118.99
70867;HTU21D;58487;53.474;49.470;2023-02-20T01:28:15;-14.36;118.99
70867;HTU21D;58487;53.474;49.470;2023-02-20T01:30:41;-14.29;118.99
70867;HTU21D;58487;53.474;49.470;2023-02-20T01:33:07;-14.28;118.99
70867;HTU21D;58487;53.474;49.470;2023-02-20T01:35:33;-14.30;118.99
70867;HTU21D;58487;53.474;49.470;2023-02-20T01:37:59;-14.33;118.99
70867;HTU21D;58487;53.474;49.470;2023-02-20T01:40:26;-14.30;118.99
70867;HTU21D;58487;53.474;49.470;2023-02-20T01:42:53;-14.30;118.99
70867;HTU21D;58487;53.474;49.470;2023-02-20T01:47:53;-14.37;118.99
70867;HTU21D;58487;53.474;49.470;2023-02-20T01:50:36;-14.39;118.99
70867;HTU21D;58487;53.474;49.470;2023-02-20T01:53:15;-14.33;118.99
70867;HTU21D;58487;53.474;49.470;2023-02-20T01:55:48;-14.33;118.99
70867;HTU21D;58487;53.474;49.470;2023-02-20T01:58:19;-14.28;118.99
70867;HTU21D;58487;53.474;49.470;2023-02-20T02:00:45;-14.26;118.99
70867;HTU21D;58487;53.474;49.470;2023-02-20T02:03:18;-14.22;118.99
70867;HTU21D;58487;53.474;49.470;2023-02-20T02:05:50;-14.19;118.99
70867;HTU21D;58487;53.474;49.470;2023-02-20T02:08:19;-14.27;118.99
70867;HTU21D;58487;53.474;49.470;2023-02-20T02:10:51;-14.30;118.99
70867;HTU21D;58487;53.474;49.470;2023-02-20T02:13:18;-14.22;118.99
70867;HTU21D;58487;53.474;49.470;2023-02-20T02:15:45;-14.30;118.99
70867;HTU21D;58487;53.474;49.470;2023-02-20T02:21:08;-14.28;118.99
70867;HTU21D;58487;53.474;49.470;2023-02-20T02:24:00;-14.22;118.99
70867;HTU21D;58487;53.474;49.470;2023-02-20T02:26:45;-14.28;118.99
70867;HTU21D;58487;53.474;49.470;2023-02-20T02:34:47;-14.19;118.99
70867;HTU21D;58487;53.474;49.470;2023-02-20T02:37:46;-14.17;118.99
70867;HTU21D;58487;53.474;49.470;2023-02-20T02:40:27;-14.03;118.99
70867;HTU21D;58487;53.474;49.470;2023-02-20T02:45:55;-13.90;118.99
70867;HTU21D;58487;53.474;49.470;2023-02-20T02:51:16;-14.01;118.99
70867;HTU21D;58487;53.474;49.470;2023-02-20T02:54:13;-14.05;118.99
70867;HTU21D;58487;53.474;49.470;2023-02-20T02:56:44;-14.03;118.99
70867;HTU21D;58487;53.474;49.470;2023-02-20T02:59:23;-13.98;118.99
70867;HTU21D;58487;53.474;49.470;2023-02-20T03:01:55;-14.02;118.99
70867;HTU21D;58487;53.474;49.470;2023-02-20T03:04:23;-14.15;118.99
70867;HTU21D;58487;53.474;49.470;2023-02-20T03:07:03;-14.07;118.99
70867;HTU21D;58487;53.474;49.470;2023-02-20T03:09:35;-13.95;118.99
70867;HTU21D;58487;53.474;49.470;2023-02-20T03:12:03;-13.95;118.99
70867;HTU21D;58487;53.474;49.470;2023-02-20T03:14:52;-13.92;118.99
70867;HTU21D;58487;53.474;49.470;2023-02-20T03:17:45;-14.11;118.99
70867;HTU21D;58487;53.474;49.470;2023-02-20T03:20:16;-13.88;118.99
70867;HTU21D;58487;53.474;49.470;2023-02-20T03:22:45;-13.70;118.99
70867;HTU21D;58487;53.474;49.470;2023-02-20T03:30:26;-13.87;118.99
70867;HTU21D;58487;53.474;49.470;2023-02-20T03:32:59;-13.73;118.99
70867;HTU21D;58487;53.474;49.470;2023-02-20T03:35:46;-14.01;118.99
70867;HTU21D;58487;53.474;49.470;2023-02-20T03:38:34;-14.17;118.99
70867;HTU21D;58487;53.474;49.470;2023-02-20T03:41:22;-14.42;118.99
70867;HTU21D;58487;53.474;49.470;2023-02-20T03:44:09;-14.57;118.99
70867;HTU21D;58487;53.474;49.470;2023-02-20T03:46:37;-14.58;118.99
70867;HTU21D;58487;53.474;49.470;2023-02-20T03:49:10;-14.67;118.99
70867;HTU21D;58487;53.474;49.470;2023-02-20T03:51:36;-14.58;118.99
70867;HTU21D;58487;53.474;49.470;2023-02-20T03:54:20;-14.46;118.99
70867;HTU21D;58487;53.474;49.470;2023-02-20T03:56:49;-14.41;118.99
70867;HTU21D;58487;53.474;49.470;2023-02-20T03:59:37;-14.56;118.99
70867;HTU21D;58487;53.474;49.470;2023-02-20T04:02:10;-14.61;118.99
70867;HTU21D;58487;53.474;49.470;2023-02-20T04:04:46;-14.60;118.99
70867;HTU21D;58487;53.474;49.470;2023-02-20T04:07:18;-14.28;118.99
70867;HTU21D;58487;53.474;49.470;2023-02-20T04:09:46;-14.03;118.99
70867;HTU21D;58487;53.474;49.470;2023-02-20T04:12:20;-13.98;118.99
70867;HTU21D;58487;53.474;49.470;2023-02-20T04:14:48;-13.91;118.99
70867;HTU21D;58487;53.474;49.470;2023-02-20T04:17:20;-14.19;118.99
70867;HTU21D;58487;53.474;49.470;2023-02-20T04:19:47;-14.44;118.99
70867;HTU21D;58487;53.474;49.470;2023-02-20T04:22:19;-14.65;118.99
70867;HTU21D;58487;53.474;49.470;2023-02-20T04:25:50;-14.62;118.99
70867;HTU21D;58487;53.474;49.470;2023-02-20T04:27:59;-14.28;118.99
70867;HTU21D;58487;53.474;49.470;2023-02-20T04:30:27;-14.14;118.99
70867;HTU21D;58487;53.474;49.470;2023-02-20T04:32:54;-14.14;118.99
70867;HTU21D;58487;53.474;49.470;2023-02-20T04:35:20;-14.23;118.99
70867;HTU21D;58487;53.474;49.470;2023-02-20T04:37:46;-14.13;118.99
70867;HTU21D;58487;53.474;49.470;2023-02-20T04:40:15;-14.04;118.99
70867;HTU21D;58487;53.474;49.470;2023-02-20T04:42:42;-13.82;118.99
70867;HTU21D;58487;53.474;49.470;2023-02-20T04:45:08;-14.03;118.99
70867;HTU21D;58487;53.474;49.470;2023-02-20T04:47:34;-14.15;118.99
70867;HTU21D;58487;53.474;49.470;2023-02-20T04:50:00;-14.13;118.99
70867;HTU21D;58487;53.474;49.470;2023-02-20T04:52:27;-14.14;118.99
70867;HTU21D;58487;53.474;49.470;2023-02-20T04:54:53;-14.19;118.99
70867;HTU21D;58487;53.474;49.470;2023-02-20T04:57:19;-14.22;118.99
70867;HTU21D;58487;53.474;49.470;2023-02-20T04:59:45;-13.91;118.99
70867;HTU21D;58487;53.474;49.470;2023-02-20T05:02:11;-14.03;118.99
70867;HTU21D;58487;53.474;49.470;2023-02-20T05:04:37;-14.04;118.99
70867;HTU21D;58487;53.474;49.470;2023-02-20T05:07:03;-14.04;118.99
70867;HTU21D;58487;53.474;49.470;2023-02-20T05:09:29;-13.95;118.99
70867;HTU21D;58487;53.474;49.470;2023-02-20T05:11:57;-13.74;118.99
70867;HTU21D;58487;53.474;49.470;2023-02-20T05:14:23;-13.71;118.99
70867;HTU21D;58487;53.474;49.470;2023-02-20T05:16:49;-13.47;118.99
70867;HTU21D;58487;53.474;49.470;2023-02-20T05:19:18;-13.18;118.99
70867;HTU21D;58487;53.474;49.470;2023-02-20T05:21:44;-13.02;118.99
70867;HTU21D;58487;53.474;49.470;2023-02-20T05:24:30;-12.89;118.99
70867;HTU21D;58487;53.474;49.470;2023-02-20T05:26:57;-12.99;118.99
70867;HTU21D;58487;53.474;49.470;2023-02-20T05:29:23;-12.85;118.99
70867;HTU21D;58487;53.474;49.470;2023-02-20T05:31:49;-12.88;118.99
70867;HTU21D;58487;53.474;49.470;2023-02-20T05:34:15;-13.03;118.99
70867;HTU21D;58487;53.474;49.470;2023-02-20T05:36:41;-13.38;118.99
70867;HTU21D;58487;53.474;49.470;2023-02-20T05:39:07;-13.40;118.99
70867;HTU21D;58487;53.474;49.470;2023-02-20T05:41:34;-13.25;118.99
70867;HTU21D;58487;53.474;49.470;2023-02-20T05:44:00;-12.94;118.99
70867;HTU21D;58487;53.474;49.470;2023-02-20T05:46:26;-12.73;118.99
70867;HTU21D;58487;53.474;49.470;2023-02-20T05:48:53;-12.52;118.99
70867;HTU21D;58487;53.474;49.470;2023-02-20T05:51:24;-12.50;118.99
70867;HTU21D;58487;53.474;49.470;2023-02-20T05:53:50;-12.36;118.99
70867;HTU21D;58487;53.474;49.470;2023-02-20T05:56:17;-12.63;118.99
70867;HTU21D;58487;53.474;49.470;2023-02-20T05:58:44;-12.60;118.99
70867;HTU21D;58487;53.474;49.470;2023-02-20T06:01:22;-12.60;118.99
70867;HTU21D;58487;53.474;49.470;2023-02-20T06:03:49;-12.37;118.99
70867;HTU21D;58487;53.474;49.470;2023-02-20T06:06:16;-12.04;118.99
70867;HTU21D;58487;53.474;49.470;2023-02-20T06:08:42;-11.80;118.99
70867;HTU21D;58487;53.474;49.470;2023-02-20T06:11:10;-11.74;118.99
70867;HTU21D;58487;53.474;49.470;2023-02-20T06:13:41;-11.73;118.99
70867;HTU21D;58487;53.474;49.470;2023-02-20T06:16:07;-11.84;118.99
70867;HTU21D;58487;53.474;49.470;2023-02-20T06:18:38;-11.84;118.99
70867;HTU21D;58487;53.474;49.470;2023-02-20T06:21:08;-11.86;118.99
70867;HTU21D;58487;53.474;49.470;2023-02-20T06:23:38;-11.85;118.99
70867;HTU21D;58487;53.474;49.470;2023-02-20T06:26:06;-11.82;118.99
70867;HTU21D;58487;53.474;49.470;2023-02-20T06:28:32;-11.56;118.99
70867;HTU21D;58487;53.474;49.470;2023-02-20T06:30:58;-11.53;118.99
70867;HTU21D;58487;53.474;49.470;2023-02-20T06:33:24;-11.37;118.99
70867;HTU21D;58487;53.474;49.470;2023-02-20T06:35:51;-11.40;118.99
70867;HTU21D;58487;53.474;49.470;2023-02-20T06:38:17;-11.48;118.99
70867;HTU21D;58487;53.474;49.470;2023-02-20T06:40:43;-11.54;118.99
70867;HTU21D;58487;53.474;49.470;2023-02-20T06:43:09;-11.23;118.99
70867;HTU21D;58487;53.474;49.470;2023-02-20T06:45:35;-10.94;118.99
70867;HTU21D;58487;53.474;49.470;2023-02-20T06:48:02;-10.75;118.99
70867;HTU21D;58487;53.474;49.470;2023-02-20T06:50:28;-10.75;118.99
70867;HTU21D;58487;53.474;49.470;2023-02-20T06:52:54;-10.64;118.99
70867;HTU21D;58487;53.474;49.470;2023-02-20T06:55:20;-10.44;118.99
70867;HTU21D;58487;53.474;49.470;2023-02-20T06:57:46;-10.72;118.99
70867;HTU21D;58487;53.474;49.470;2023-02-20T07:00:13;-10.95;118.99
70867;HTU21D;58487;53.474;49.470;2023-02-20T07:02:39;-11.00;118.99
70867;HTU21D;58487;53.474;49.470;2023-02-20T07:05:05;-10.94;118.99
70867;HTU21D;58487;53.474;49.470;2023-02-20T07:07:31;-10.94;118.99
70867;HTU21D;58487;53.474;49.470;2023-02-20T07:09:57;-11.15;118.99
70867;HTU21D;58487;53.474;49.470;2023-02-20T07:12:30;-10.96;118.99
70867;HTU21D;58487;53.474;49.470;2023-02-20T07:14:56;-10.56;118.99
70867;HTU21D;58487;53.474;49.470;2023-02-20T07:17:22;-10.90;118.99
70867;HTU21D;58487;53.474;49.470;2023-02-20T07:19:48;-10.87;118.99
70867;HTU21D;58487;53.474;49.470;2023-02-20T07:22:14;-10.90;118.99
70867;HTU21D;58487;53.474;49.470;2023-02-20T07:24:40;-10.71;118.99
70867;HTU21D;58487;53.474;49.470;2023-02-20T07:27:07;-10.32;118.99
70867;HTU21D;58487;53.474;49.470;2023-02-20T07:29:36;-10.04;118.99
70867;HTU21D;58487;53.474;49.470;2023-02-20T07:32:02;-10.42;118.99
70867;HTU21D;58487;53.474;49.470;2023-02-20T07:34:28;-10.60;118.99
70867;HTU21D;58487;53.474;49.470;2023-02-20T07:36:54;-10.37;118.99
70867;HTU21D;58487;53.474;49.470;2023-02-20T07:39:20;-10.12;118.99
70867;HTU21D;58487;53.474;49.470;2023-02-20T07:41:49;-10.17;118.99
70867;HTU21D;58487;53.474;49.470;2023-02-20T07:44:15;-10.23;118.99
70867;HTU21D;58487;53.474;49.470;2023-02-20T07:46:41;-10.48;118.99
70867;HTU21D;58487;53.474;49.470;2023-02-20T07:49:08;-10.52;118.99
70867;HTU21D;58487;53.474;49.470;2023-02-20T07:51:34;-10.31;118.99
70867;HTU21D;58487;53.474;49.470;2023-02-20T07:54:14;-10.21;118.99
70867;HTU21D;58487;53.474;49.470;2023-02-20T07:56:49;-10.13;118.99
70867;HTU21D;58487;53.474;49.470;2023-02-20T07:59:17;-10.32;118.99
70867;HTU21D;58487;53.474;49.470;2023-02-20T11:27:54;-6.89;118.99
70867;HTU21D;58487;53.474;49.470;2023-02-20T11:30:30;-7.36;118.99
70867;HTU21D;58487;53.474;49.470;2023-02-20T11:35:39;-7.47;118.99
70867;HTU21D;58487;53.474;49.470;2023-02-20T11:40:46;-7.60;118.99
70867;HTU21D;58487;53.474;49.470;2023-02-20T11:43:16;-7.41;118.99
70867;HTU21D;58487;53.474;49.470;2023-02-20T11:45:44;-7.16;118.99
70867;HTU21D;58487;53.474;49.470;2023-02-20T11:48:16;-6.90;118.99
70867;HTU21D;58487;53.474;49.470;2023-02-20T11:55:44;-7.15;118.99
70867;HTU21D;58487;53.474;49.470;2023-02-20T11:58:25;-7.26;118.99
70867;HTU21D;58487;53.474;49.470;2023-02-20T12:00:53;-7.65;118.99
70867;HTU21D;58487;53.474;49.470;2023-02-20T12:03:25;-7.38;118.99
70867;HTU21D;58487;53.474;49.470;2023-02-20T12:05:55;-7.10;118.99
70867;HTU21D;58487;53.474;49.470;2023-02-20T12:11:19;-6.87;118.99
70867;HTU21D;58487;53.474;49.470;2023-02-20T12:13:48;-6.62;118.99
70867;HTU21D;58487;53.474;49.470;2023-02-20T12:30:21;-6.95;118.99
70867;HTU21D;58487;53.474;49.470;2023-02-20T12:35:35;-7.13;118.99
70867;HTU21D;58487;53.474;49.470;2023-02-20T12:46:23;-7.64;118.99
70867;HTU21D;58487;53.474;49.470;2023-02-20T12:49:21;-7.85;118.99
70867;HTU21D;58487;53.474;49.470;2023-02-20T12:54:42;-7.89;118.99
70867;HTU21D;58487;53.474;49.470;2023-02-20T13:00:03;-7.90;118.99
70867;HTU21D;58487;53.474;49.470;2023-02-20T13:05:02;-7.62;118.99
70867;HTU21D;58487;53.474;49.470;2023-02-20T13:10:15;-7.48;118.99
70867;HTU21D;58487;53.474;49.470;2023-02-20T13:12:43;-7.25;118.99
70867;HTU21D;58487;53.474;49.470;2023-02-20T13:20:43;-6.94;118.99
70867;HTU21D;58487;53.474;49.470;2023-02-20T13:25:46;-6.94;118.99
70867;HTU21D;58487;53.474;49.470;2023-02-20T13:28:41;-6.96;118.99
70867;HTU21D;58487;53.474;49.470;2023-02-20T13:31:15;-7.04;118.99
70867;HTU21D;58487;53.474;49.470;2023-02-20T13:33:47;-6.98;118.99
70867;HTU21D;58487;53.474;49.470;2023-02-20T13:55:21;-6.88;118.99
70867;HTU21D;58487;53.474;49.470;2023-02-20T14:02:50;-7.24;118.99
70867;HTU21D;58487;53.474;49.470;2023-02-20T14:07:52;-7.07;118.99
70867;HTU21D;58487;53.474;49.470;2023-02-20T14:10:30;-7.13;118.99
70867;HTU21D;58487;53.474;49.470;2023-02-20T14:13:02;-7.08;118.99
70867;HTU21D;58487;53.474;49.470;2023-02-20T14:15:32;-7.06;118.99
70867;HTU21D;58487;53.474;49.470;2023-02-20T14:17:58;-7.01;118.99
70867;HTU21D;58487;53.474;49.470;2023-02-20T14:20:32;-6.87;118.99
70867;HTU21D;58487;53.474;49.470;2023-02-20T14:23:27;-6.83;118.99
70867;HTU21D;58487;53.474;49.470;2023-02-20T14:26:02;-6.97;118.99
70867;HTU21D;58487;53.474;49.470;2023-02-20T14:28:31;-6.88;118.99
70867;HTU21D;58487;53.474;49.470;2023-02-20T14:33:30;-7.05;118.99
70867;HTU21D;58487;53.474;49.470;2023-02-20T14:41:23;-7.10;118.99
70867;HTU21D;58487;53.474;49.470;2023-02-20T14:44:03;-7.05;118.99
70867;HTU21D;58487;53.474;49.470;2023-02-20T14:46:33;-6.93;118.99
70867;HTU21D;58487;53.474;49.470;2023-02-20T14:49:09;-6.94;118.99
70867;HTU21D;58487;53.474;49.470;2023-02-20T14:51:37;-6.97;118.99
70867;HTU21D;58487;53.474;49.470;2023-02-20T14:54:18;-6.98;118.99
70867;HTU21D;58487;53.474;49.470;2023-02-20T14:56:46;-6.98;118.99
70867;HTU21D;58487;53.474;49.470;2023-02-20T15:01:42;-7.03;118.99
70867;HTU21D;58487;53.474;49.470;2023-02-20T15:04:14;-7.15;118.99
70867;HTU21D;58487;53.474;49.470;2023-02-20T15:06:45;-7.19;118.99
70867;HTU21D;58487;53.474;49.470;2023-02-20T15:09:12;-7.23;118.99
70867;HTU21D;58487;53.474;49.470;2023-02-20T15:12:18;-7.33;118.99
70867;HTU21D;58487;53.474;49.470;2023-02-20T15:14:45;-7.44;118.99
70867;HTU21D;58487;53.474;49.470;2023-02-20T15:19:49;-7.66;118.99
70867;HTU21D;58487;53.474;49.470;2023-02-20T15:22:25;-7.64;118.99
70867;HTU21D;58487;53.474;49.470;2023-02-20T15:24:53;-7.60;118.99
70867;HTU21D;58487;53.474;49.470;2023-02-20T15:27:22;-7.50;118.99
70867;HTU21D;58487;53.474;49.470;2023-02-20T15:30:15;-7.48;118.99
70867;HTU21D;58487;53.474;49.470;2023-02-20T15:32:50;-7.48;118.99
70867;HTU21D;58487;53.474;49.470;2023-02-20T15:35:20;-7.60;118.99
70867;HTU21D;58487;53.474;49.470;2023-02-20T15:37:48;-7.57;118.99
70867;HTU21D;58487;53.474;49.470;2023-02-20T15:40:31;-7.63;118.99
70867;HTU21D;58487;53.474;49.470;2023-02-20T15:42:58;-7.60;118.99
70867;HTU21D;58487;53.474;49.470;2023-02-20T15:45:27;-7.59;118.99
70867;HTU21D;58487;53.474;49.470;2023-02-20T15:47:59;-7.62;118.99
70867;HTU21D;58487;53.474;49.470;2023-02-20T15:50:25;-7.65;118.99
70867;HTU21D;58487;53.474;49.470;2023-02-20T15:52:52;-7.61;118.99
70867;HTU21D;58487;53.474;49.470;2023-02-20T15:55:21;-7.63;118.99
70867;HTU21D;58487;53.474;49.470;2023-02-20T15:57:48;-7.62;118.99
70867;HTU21D;58487;53.474;49.470;2023-02-20T16:00:22;-7.54;118.99
70867;HTU21D;58487;53.474;49.470;2023-02-20T16:02:49;-7.54;118.99
70867;HTU21D;58487;53.474;49.470;2023-02-20T16:05:19;-7.49;118.99
70867;HTU21D;58487;53.474;49.470;2023-02-20T16:07:46;-7.60;118.99
70867;HTU21D;58487;53.474;49.470;2023-02-20T16:10:17;-7.62;118.99
70867;HTU21D;58487;53.474;49.470;2023-02-20T16:12:45;-7.56;118.99
70867;HTU21D;58487;53.474;49.470;2023-02-20T16:15:17;-7.67;118.99
70867;HTU21D;58487;53.474;49.470;2023-02-20T16:17:51;-7.64;118.99
70867;HTU21D;58487;53.474;49.470;2023-02-20T16:20:24;-7.67;118.99
70867;HTU21D;58487;53.474;49.470;2023-02-20T16:22:51;-7.67;118.99
70867;HTU21D;58487;53.474;49.470;2023-02-20T16:25:23;-7.59;118.99
70867;HTU21D;58487;53.474;49.470;2023-02-20T16:27:53;-7.56;118.99
70867;HTU21D;58487;53.474;49.470;2023-02-20T16:32:50;-7.60;118.99
70867;HTU21D;58487;53.474;49.470;2023-02-20T16:35:19;-7.56;118.99
70867;HTU21D;58487;53.474;49.470;2023-02-20T16:37:45;-7.48;118.99
70867;HTU21D;58487;53.474;49.470;2023-02-20T16:40:13;-7.45;118.99
70867;HTU21D;58487;53.474;49.470;2023-02-20T16:42:40;-7.44;118.99
70867;HTU21D;58487;53.474;49.470;2023-02-20T16:45:12;-7.46;118.99
70867;HTU21D;58487;53.474;49.470;2023-02-20T16:47:39;-7.55;118.99
70867;HTU21D;58487;53.474;49.470;2023-02-20T16:50:06;-7.51;118.99
70867;HTU21D;58487;53.474;49.470;2023-02-20T16:52:40;-7.34;118.99
70867;HTU21D;58487;53.474;49.470;2023-02-20T16:55:19;-7.44;118.99
70867;HTU21D;58487;53.474;49.470;2023-02-20T16:57:45;-7.35;118.99
70867;HTU21D;58487;53.474;49.470;2023-02-20T17:00:16;-7.32;118.99
70867;HTU21D;58487;53.474;49.470;2023-02-20T17:02:43;-7.39;118.99
70867;HTU21D;58487;53.474;49.470;2023-02-20T17:05:10;-7.36;118.99
70867;HTU21D;58487;53.474;49.470;2023-02-20T17:07:37;-7.30;118.99
70867;HTU21D;58487;53.474;49.470;2023-02-20T17:10:04;-7.22;118.99
70867;HTU21D;58487;53.474;49.470;2023-02-20T17:12:32;-7.26;118.99
70867;HTU21D;58487;53.474;49.470;2023-02-20T17:15:00;-7.21;118.99
70867;HTU21D;58487;53.474;49.470;2023-02-20T17:17:27;-7.11;118.99
70867;HTU21D;58487;53.474;49.470;2023-02-20T17:19:53;-7.12;118.99
70867;HTU21D;58487;53.474;49.470;2023-02-20T17:22:24;-7.23;118.99
70867;HTU21D;58487;53.474;49.470;2023-02-20T17:24:51;-7.24;118.99
70867;HTU21D;58487;53.474;49.470;2023-02-20T17:27:18;-7.34;118.99
70867;HTU21D;58487;53.474;49.470;2023-02-20T17:29:45;-7.30;118.99
70867;HTU21D;58487;53.474;49.470;2023-02-20T17:32:12;-7.33;118.99
70867;HTU21D;58487;53.474;49.470;2023-02-20T17:34:38;-7.37;118.99
70867;HTU21D;58487;53.474;49.470;2023-02-20T17:37:06;-7.41;118.99
70867;HTU21D;58487;53.474;49.470;2023-02-20T17:39:33;-7.33;118.99
70867;HTU21D;58487;53.474;49.470;2023-02-20T17:41:59;-7.38;118.99
70867;HTU21D;58487;53.474;49.470;2023-02-20T17:44:28;-7.39;118.99
70867;HTU21D;58487;53.474;49.470;2023-02-20T17:46:56;-7.46;118.99
70867;HTU21D;58487;53.474;49.470;2023-02-20T17:49:24;-7.39;118.99
70867;HTU21D;58487;53.474;49.470;2023-02-20T17:51:53;-7.41;118.99
70867;HTU21D;58487;53.474;49.470;2023-02-20T17:54:27;-7.42;118.99
70867;HTU21D;58487;53.474;49.470;2023-02-20T17:56:53;-7.41;118.99
70867;HTU21D;58487;53.474;49.470;2023-02-20T17:59:20;-7.41;118.99
70867;HTU21D;58487;53.474;49.470;2023-02-20T18:01:49;-7.37;118.99
70867;HTU21D;58487;53.474;49.470;2023-02-20T18:04:15;-7.39;118.99
70867;HTU21D;58487;53.474;49.470;2023-02-20T18:06:43;-7.56;118.99
70867;HTU21D;58487;53.474;49.470;2023-02-20T18:09:14;-7.37;118.99
70867;HTU21D;58487;53.474;49.470;2023-02-20T18:11:42;-7.31;118.99
70867;HTU21D;58487;53.474;49.470;2023-02-20T18:14:10;-7.31;118.99
70867;HTU21D;58487;53.474;49.470;2023-02-20T18:16:37;-7.30;118.99
70867;HTU21D;58487;53.474;49.470;2023-02-20T18:19:07;-7.45;118.99
70867;HTU21D;58487;53.474;49.470;2023-02-20T18:21:36;-7.76;118.99
70867;HTU21D;58487;53.474;49.470;2023-02-20T18:24:05;-8.03;118.99
70867;HTU21D;58487;53.474;49.470;2023-02-20T18:26:31;-8.11;118.99
70867;HTU21D;58487;53.474;49.470;2023-02-20T18:28:58;-8.24;118.99
70867;HTU21D;58487;53.474;49.470;2023-02-20T18:31:24;-8.24;118.99
70867;HTU21D;58487;53.474;49.470;2023-02-20T18:33:55;-8.08;118.99
70867;HTU21D;58487;53.474;49.470;2023-02-20T18:36:22;-7.98;118.99
70867;HTU21D;58487;53.474;49.470;2023-02-20T18:38:49;-7.95;118.99
70867;HTU21D;58487;53.474;49.470;2023-02-20T18:41:15;-7.83;118.99
70867;HTU21D;58487;53.474;49.470;2023-02-20T18:43:43;-7.76;118.99
70867;HTU21D;58487;53.474;49.470;2023-02-20T18:46:10;-7.75;118.99
70867;HTU21D;58487;53.474;49.470;2023-02-20T18:48:36;-7.74;118.99
70867;HTU21D;58487;53.474;49.470;2023-02-20T18:51:02;-7.74;118.99
70867;HTU21D;58487;53.474;49.470;2023-02-20T18:53:29;-7.64;118.99
70867;HTU21D;58487;53.474;49.470;2023-02-20T18:55:55;-7.65;118.99
70867;HTU21D;58487;53.474;49.470;2023-02-20T18:58:21;-7.65;118.99
70867;HTU21D;58487;53.474;49.470;2023-02-20T19:00:49;-7.66;118.99
70867;HTU21D;58487;53.474;49.470;2023-02-20T19:03:15;-7.60;118.99
70867;HTU21D;58487;53.474;49.470;2023-02-20T19:05:43;-7.64;118.99
70867;HTU21D;58487;53.474;49.470;2023-02-20T19:08:12;-7.55;118.99
70867;HTU21D;58487;53.474;49.470;2023-02-20T19:10:38;-7.52;118.99
70867;HTU21D;58487;53.474;49.470;2023-02-20T19:13:05;-7.49;118.99
70867;HTU21D;58487;53.474;49.470;2023-02-20T19:15:31;-7.54;118.99
70867;HTU21D;58487;53.474;49.470;2023-02-20T19:17:57;-7.50;118.99
70867;HTU21D;58487;53.474;49.470;2023-02-20T19:20:28;-7.53;118.99
70867;HTU21D;58487;53.474;49.470;2023-02-20T19:22:57;-7.54;118.99
70867;HTU21D;58487;53.474;49.470;2023-02-20T19:25:25;-7.62;118.99
70867;HTU21D;58487;53.474;49.470;2023-02-20T19:27:51;-7.66;118.99
70867;HTU21D;58487;53.474;49.470;2023-02-20T19:30:17;-7.63;118.99
70867;HTU21D;58487;53.474;49.470;2023-02-20T19:32:45;-7.50;118.99
70867;HTU21D;58487;53.474;49.470;2023-02-20T19:35:14;-7.52;118.99
70867;HTU21D;58487;53.474;49.470;2023-02-20T19:37:40;-7.52;118.99
70867;HTU21D;58487;53.474;49.470;2023-02-20T19:40:07;-7.36;118.99
70867;HTU21D;58487;53.474;49.470;2023-02-20T19:42:34;-7.40;118.99
70867;HTU21D;58487;53.474;49.470;2023-02-20T19:45:00;-7.38;118.99
70867;HTU21D;58487;53.474;49.470;2023-02-20T19:47:27;-7.41;118.99
70867;HTU21D;58487;53.474;49.470;2023-02-20T19:49:53;-7.38;118.99
70867;HTU21D;58487;53.474;49.470;2023-02-20T19:52:19;-7.47;118.99
70867;HTU21D;58487;53.474;49.470;2023-02-20T19:54:46;-7.48;118.99
70867;HTU21D;58487;53.474;49.470;2023-02-20T19:57:13;-7.52;118.99
70867;HTU21D;58487;53.474;49.470;2023-02-20T19:59:40;-7.56;118.99
70867;HTU21D;58487;53.474;49.470;2023-02-20T20:02:07;-7.71;118.99
70867;HTU21D;58487;53.474;49.470;2023-02-20T20:04:33;-7.64;118.99
70867;HTU21D;58487;53.474;49.470;2023-02-20T20:07:00;-7.83;118.99
70867;HTU21D;58487;53.474;49.470;2023-02-20T20:09:30;-7.94;118.99
70867;HTU21D;58487;53.474;49.470;2023-02-20T20:11:56;-7.90;118.99
70867;HTU21D;58487;53.474;49.470;2023-02-20T20:14:22;-8.03;118.99
70867;HTU21D;58487;53.474;49.470;2023-02-20T20:16:49;-8.12;118.99
70867;HTU21D;58487;53.474;49.470;2023-02-20T20:19:18;-8.03;118.99
70867;HTU21D;58487;53.474;49.470;2023-02-20T20:21:47;-7.99;118.99